Time;durP1;ratioP1;P1;durP2;ratioP2;P2;SDS_P1;SDS_P2;PMS_P1;PMS_P2;Temp;Humidity;BMP_temperature;BMP_pressure;BME280_temperature;BME280_humidity;BME280_pressure;Samples;Min_cycle;Max_cycle;Signal;HPM_P1;HPM_P2
2023/03/10 00:00:51;;;;;;;;;;;;;;;27.92;63.27;101257.94;5052470;28;66606;-41
2023/03/10 00:03:21;;;;;;;;;;;;;;;27.95;63.44;101251.34;5056164;28;69661;-40
2023/03/10 00:05:51;;;;;;;;;;;;;;;27.96;64.18;101261.91;5045417;27;66697;-37
2023/03/10 00:08:22;;;;;;;;;;;;;;;27.98;64.32;101262.56;5057742;27;70162;-40
2023/03/10 00:10:55;;;;;;;;;;;;;;;27.99;62.75;101266.94;5054425;28;67006;-41
2023/03/10 00:13:25;;;;;;;;;;;;;;;27.99;60.93;101260.69;5046038;28;69908;-41
2023/03/10 00:15:56;;;;;;;;;;;;;;;27.99;60.53;101271.50;5052170;28;66129;-41
2023/03/10 00:18:26;;;;;;;;;;;;;;;28.01;60.67;101275.66;5050485;28;70573;-41
2023/03/10 00:20:57;;;;;;;;;;;;;;;28.04;60.51;101279.84;5047446;27;66800;-42
2023/03/10 00:23:28;;;;;;;;;;;;;;;28.07;60.30;101282.16;5048849;28;69152;-40
2023/03/10 00:25:59;;;;;;;;;;;;;;;28.09;60.50;101281.97;5047894;28;66505;-42
2023/03/10 00:28:29;;;;;;;;;;;;;;;28.11;60.03;101285.28;5049500;28;70240;-40
2023/03/10 00:31:01;;;;;;;;;;;;;;;28.13;60.27;101288.63;5052209;28;65809;-41
2023/03/10 00:33:32;;;;;;;;;;;;;;;28.15;60.37;101292.00;5075020;27;69257;-40
2023/03/10 00:36:16;;;;;;;;;;;;;;;28.17;60.31;101289.94;5044858;28;66647;-41
2023/03/10 00:38:49;;;;;;;;;;;;;;;28.19;60.52;101294.09;5045119;28;69560;-41
2023/03/10 00:41:20;;;;;;;;;;;;;;;28.20;60.17;101294.94;5042079;28;65627;-41
2023/03/10 00:43:51;;;;;;;;;;;;;;;28.23;60.83;101306.19;5048681;28;69813;-41
2023/03/10 00:46:22;;;;;;;;;;;;;;;28.24;60.66;101290.81;5047295;28;66437;-41
2023/03/10 00:48:52;;;;;;;;;;;;;;;28.27;60.66;101299.38;5043612;28;70456;-43
2023/03/10 00:51:23;;;;;;;;;;;;;;;28.26;60.16;101299.56;5047710;28;66737;-40
2023/03/10 00:53:55;;;;;;;;;;;;;;;28.27;60.05;101287.75;5050421;28;70105;-40
2023/03/10 00:56:26;;;;;;;;;;;;;;;28.28;59.86;101297.53;5047112;28;66382;-41
2023/03/10 00:58:58;;;;;;;;;;;;;;;28.27;59.70;101291.25;5042909;28;69266;-42
2023/03/10 01:01:32;;;;;;;;;;;;;;;28.28;59.58;101282.16;5048936;27;66356;-40
2023/03/10 01:04:08;;;;;;;;;;;;;;;28.29;59.50;101293.78;5053140;28;63414;-43
2023/03/10 01:06:39;;;;;;;;;;;;;;;28.29;59.27;101294.63;5049523;28;66659;-41
2023/03/10 01:09:10;;;;;;;;;;;;;;;28.31;59.18;101290.91;5044842;28;71437;-40
2023/03/10 01:11:40;;;;;;;;;;;;;;;28.31;59.24;101294.44;5051296;28;65870;-40
2023/03/10 01:14:13;;;;;;;;;;;;;;;28.33;58.89;101295.06;5064710;27;69443;-40
2023/03/10 01:16:43;;;;;;;;;;;;;;;28.33;59.28;101295.06;5057972;28;66868;-42
2023/03/10 01:19:15;;;;;;;;;;;;;;;28.34;58.94;101298.63;5042285;28;68818;-41
2023/03/10 01:21:48;;;;;;;;;;;;;;;28.36;59.02;101304.63;5052403;28;66379;-42
2023/03/10 01:24:18;;;;;;;;;;;;;;;28.35;58.84;101293.00;5053388;28;70629;-42
2023/03/10 01:26:49;;;;;;;;;;;;;;;28.38;58.89;101299.88;5039782;28;66030;-41
2023/03/10 01:29:19;;;;;;;;;;;;;;;28.38;58.33;101298.00;5052557;28;70434;-40
2023/03/10 01:31:49;;;;;;;;;;;;;;;28.40;58.31;101308.63;5046766;28;65808;-39
2023/03/10 01:34:20;;;;;;;;;;;;;;;28.41;58.31;101302.19;5050587;28;69155;-48
2023/03/10 01:36:50;;;;;;;;;;;;;;;28.41;58.05;101302.19;5079924;27;66614;-40
2023/03/10 01:39:20;;;;;;;;;;;;;;;28.42;58.48;101310.13;5044209;28;69068;-40
2023/03/10 01:41:50;;;;;;;;;;;;;;;28.44;57.99;101302.66;5042790;27;66034;-40
2023/03/10 01:44:21;;;;;;;;;;;;;;;28.44;58.33;101308.06;5051546;28;69422;-40
2023/03/10 01:46:54;;;;;;;;;;;;;;;28.46;57.89;101303.31;5051857;28;67013;-40
2023/03/10 01:49:37;;;;;;;;;;;;;;;28.48;57.69;101301.25;5046111;27;69854;-41
2023/03/10 01:52:10;;;;;;;;;;;;;;;28.49;57.57;101311.00;5049893;28;66308;-42
2023/03/10 01:54:45;;;;;;;;;;;;;;;28.50;57.56;101307.31;5046953;28;70259;-40
2023/03/10 01:57:16;;;;;;;;;;;;;;;28.54;57.90;101301.53;5088321;27;66546;-39
2023/03/10 01:59:46;;;;;;;;;;;;;;;28.53;57.47;101289.91;5056339;28;70188;-41
2023/03/10 02:02:18;;;;;;;;;;;;;;;28.56;57.67;101299.47;5048275;28;66429;-41
2023/03/10 02:04:50;;;;;;;;;;;;;;;28.59;57.70;101299.06;5067838;27;70058;-41
2023/03/10 02:07:25;;;;;;;;;;;;;;;28.60;57.30;101298.03;5055683;28;65928;-40
2023/03/10 02:09:56;;;;;;;;;;;;;;;28.61;57.10;101288.91;5038789;28;70095;-40
2023/03/10 02:12:26;;;;;;;;;;;;;;;28.63;57.41;101290.38;5082334;27;66316;-42
2023/03/10 02:14:57;;;;;;;;;;;;;;;28.65;56.95;101287.50;5049656;28;70281;-43
2023/03/10 02:17:27;;;;;;;;;;;;;;;28.67;57.21;101274.66;5040577;28;66788;-43
2023/03/10 02:20:10;;;;;;;;;;;;;;;28.67;56.99;101270.06;5046613;28;70807;-43
2023/03/10 02:22:41;;;;;;;;;;;;;;;28.70;56.69;101272.38;5041920;28;66588;-40
2023/03/10 02:25:23;;;;;;;;;;;;;;;28.72;57.14;101270.31;5047509;28;69990;-40
2023/03/10 02:27:53;;;;;;;;;;;;;;;28.74;56.63;101276.34;5075426;27;66238;-40
2023/03/10 02:30:31;;;;;;;;;;;;;;;28.76;56.55;101278.03;5042441;28;69425;-41
2023/03/10 02:33:12;;;;;;;;;;;;;;;28.78;56.51;101268.69;5056750;27;66472;-41
2023/03/10 02:35:44;;;;;;;;;;;;;;;28.81;56.81;101270.19;5057144;27;70900;-39
2023/03/10 02:38:20;;;;;;;;;;;;;;;28.82;56.60;101261.88;5042234;28;66137;-42
2023/03/10 02:40:51;;;;;;;;;;;;;;;28.84;56.42;101261.69;5076912;27;70285;-41
2023/03/10 02:43:33;;;;;;;;;;;;;;;28.88;56.28;101262.94;5044454;27;66526;-41
2023/03/10 02:46:16;;;;;;;;;;;;;;;28.90;56.44;101259.00;5046228;28;69748;-40
2023/03/10 02:48:47;;;;;;;;;;;;;;;28.91;56.19;101249.88;5043207;28;65982;-41
2023/03/10 02:51:26;;;;;;;;;;;;;;;28.94;56.10;101249.47;5043576;27;69927;-40
2023/03/10 02:54:00;;;;;;;;;;;;;;;28.97;56.08;101248.25;5049211;28;66092;-42
2023/03/10 02:56:33;;;;;;;;;;;;;;;28.99;56.09;101242.66;5030620;28;69586;-40
2023/03/10 02:59:05;;;;;;;;;;;;;;;29.01;56.35;101236.03;5036659;28;65974;-43
2023/03/10 03:01:37;;;;;;;;;;;;;;;29.03;56.21;101238.50;5055740;27;71264;-39
2023/03/10 03:04:08;;;;;;;;;;;;;;;29.05;55.67;101234.59;5060995;27;66840;-40
2023/03/10 03:06:39;;;;;;;;;;;;;;;29.07;55.99;101237.13;5046901;28;70382;-40
2023/03/10 03:09:09;;;;;;;;;;;;;;;29.10;55.99;101231.31;5053210;28;67508;-41
2023/03/10 03:11:40;;;;;;;;;;;;;;;29.12;56.09;101237.38;5055178;28;70799;-40
2023/03/10 03:14:11;;;;;;;;;;;;;;;29.14;55.35;101227.16;5057846;27;66925;-40
2023/03/10 03:16:41;;;;;;;;;;;;;;;29.16;55.73;101225.94;5053813;28;70410;-40
2023/03/10 03:19:12;;;;;;;;;;;;;;;29.22;55.80;101231.56;5085349;27;67704;-42
2023/03/10 03:21:48;;;;;;;;;;;;;;;29.23;55.75;101225.97;5084245;27;69229;-40
2023/03/10 03:24:21;;;;;;;;;;;;;;;29.24;55.25;101222.25;5056848;28;66822;-39
2023/03/10 03:26:52;;;;;;;;;;;;;;;29.27;55.62;101210.19;5046797;28;69781;-41
2023/03/10 03:29:26;;;;;;;;;;;;;;;29.30;55.64;101210.63;5087574;27;68481;-41
2023/03/10 03:31:56;;;;;;;;;;;;;;;29.31;55.65;101206.91;5053272;28;69851;-42
2023/03/10 03:34:31;;;;;;;;;;;;;;;29.34;55.00;101205.66;5047774;28;66657;-40
2023/03/10 03:37:04;;;;;;;;;;;;;;;29.35;55.07;101191.94;5052949;28;70732;-40
2023/03/10 03:39:38;;;;;;;;;;;;;;;29.39;55.09;101201.31;5051208;28;66684;-40
2023/03/10 03:42:09;;;;;;;;;;;;;;;29.43;55.53;101182.00;5038531;28;70805;-41
2023/03/10 03:44:47;;;;;;;;;;;;;;;29.44;55.03;101184.47;5059238;27;66692;-41
2023/03/10 03:47:18;;;;;;;;;;;;;;;29.48;54.99;101191.16;5053439;28;70427;-39
2023/03/10 03:49:49;;;;;;;;;;;;;;;29.51;54.89;101187.22;5048123;28;66917;-40
2023/03/10 03:52:19;;;;;;;;;;;;;;;29.53;55.13;101177.00;5053975;27;70411;-40
2023/03/10 03:54:49;;;;;;;;;;;;;;;29.56;55.26;101171.19;5055518;28;65744;-40
2023/03/10 03:57:21;;;;;;;;;;;;;;;29.59;54.97;101176.22;5045657;28;70742;-40
2023/03/10 03:59:51;;;;;;;;;;;;;;;29.61;55.07;101168.72;5056846;28;66173;-40
2023/03/10 04:02:21;;;;;;;;;;;;;;;29.64;54.67;101165.63;5047885;28;70568;-40
2023/03/10 04:04:53;;;;;;;;;;;;;;;29.67;54.58;101161.69;5055041;28;65657;-41
2023/03/10 04:07:23;;;;;;;;;;;;;;;29.69;54.65;101160.44;5037798;28;70228;-40
2023/03/10 04:09:54;;;;;;;;;;;;;;;29.71;55.11;101158.38;5055569;28;66607;-40
2023/03/10 04:12:26;;;;;;;;;;;;;;;29.73;54.58;101150.91;5069478;27;69130;-40
2023/03/10 04:14:58;;;;;;;;;;;;;;;29.77;54.79;101152.13;5084927;27;66020;-41
2023/03/10 04:17:28;;;;;;;;;;;;;;;29.79;54.80;101144.66;5052171;28;70783;-41
2023/03/10 04:19:58;;;;;;;;;;;;;;;29.81;54.34;101145.28;5044281;28;65904;-41
2023/03/10 04:22:41;;;;;;;;;;;;;;;29.85;54.08;101137.59;5087127;27;70019;-40
2023/03/10 04:25:12;;;;;;;;;;;;;;;29.88;54.32;101133.66;5038366;28;66905;-41
2023/03/10 04:27:43;;;;;;;;;;;;;;;29.90;54.32;101121.59;5041427;28;70498;-41
2023/03/10 04:30:14;;;;;;;;;;;;;;;29.94;54.20;101119.28;5040406;27;66079;-40
2023/03/10 04:32:48;;;;;;;;;;;;;;;29.97;53.92;101113.44;5046396;28;69269;-40
2023/03/10 04:35:22;;;;;;;;;;;;;;;29.99;53.71;101114.09;5057110;27;66915;-40
2023/03/10 04:37:53;;;;;;;;;;;;;;;30.03;53.92;101109.91;5045548;28;69920;-41
2023/03/10 04:40:25;;;;;;;;;;;;;;;30.05;54.08;101110.53;5052812;28;66775;-40
2023/03/10 04:42:56;;;;;;;;;;;;;;;30.08;54.03;101093.88;5045899;28;70416;-45
2023/03/10 04:45:27;;;;;;;;;;;;;;;30.10;53.73;101091.81;5081254;27;66512;-42
2023/03/10 04:47:58;;;;;;;;;;;;;;;30.14;53.92;101078.69;5055680;28;70736;-40
2023/03/10 04:50:29;;;;;;;;;;;;;;;30.17;53.36;101075.56;5042409;28;67123;-42
2023/03/10 04:53:00;;;;;;;;;;;;;;;30.21;53.63;101079.50;5050929;28;69878;-42
2023/03/10 04:55:32;;;;;;;;;;;;;;;30.23;53.87;101070.19;5044262;28;65740;-40
2023/03/10 04:58:04;;;;;;;;;;;;;;;30.26;53.56;101067.03;5050455;28;70472;-41
2023/03/10 05:00:37;;;;;;;;;;;;;;;30.28;53.21;101062.25;5087626;27;65575;-39
2023/03/10 05:03:22;;;;;;;;;;;;;;;30.33;53.20;101058.06;5038256;28;70466;-40
2023/03/10 05:05:52;;;;;;;;;;;;;;;30.34;53.56;101044.34;5056966;28;66801;-39
2023/03/10 05:08:23;;;;;;;;;;;;;;;30.37;53.17;101034.94;5084264;27;69175;-40
2023/03/10 05:10:53;;;;;;;;;;;;;;;30.40;53.31;101038.06;5056689;28;66621;-40
2023/03/10 05:13:23;;;;;;;;;;;;;;;30.43;53.34;101026.81;5048307;28;70743;-41
2023/03/10 05:15:54;;;;;;;;;;;;;;;30.45;53.09;101029.28;5055215;28;66693;-40
2023/03/10 05:18:24;;;;;;;;;;;;;;;30.48;53.13;101009.94;5084221;27;70795;-41
2023/03/10 05:20:56;;;;;;;;;;;;;;;30.50;52.99;101015.94;5048532;28;65662;-40
2023/03/10 05:23:28;;;;;;;;;;;;;;;30.54;52.84;101005.53;5081874;27;69688;-41
2023/03/10 05:26:01;;;;;;;;;;;;;;;30.56;52.49;101009.66;5038910;28;65151;-40
2023/03/10 05:28:32;;;;;;;;;;;;;;;30.58;52.70;101002.19;5052629;27;69857;-41
2023/03/10 05:31:14;;;;;;;;;;;;;;;30.61;52.69;101003.63;5084061;27;66477;-40
2023/03/10 05:33:48;;;;;;;;;;;;;;;30.63;52.86;101005.06;5056110;27;69258;-39
2023/03/10 05:36:20;;;;;;;;;;;;;;;30.65;52.90;100994.03;5052219;28;66891;-40
2023/03/10 05:38:50;;;;;;;;;;;;;;;30.67;52.41;100992.78;5040990;28;70157;-40
2023/03/10 05:41:21;;;;;;;;;;;;;;;30.68;52.29;100985.47;5054823;28;65664;-40
2023/03/10 05:43:56;;;;;;;;;;;;;;;30.69;52.29;100982.53;5042534;27;70671;-41
2023/03/10 05:46:27;;;;;;;;;;;;;;;30.71;52.22;100980.44;5047136;28;66646;-40
2023/03/10 05:48:59;;;;;;;;;;;;;;;30.72;52.29;100971.28;5048362;28;70049;-41
2023/03/10 05:51:30;;;;;;;;;;;;;;;30.76;52.73;100965.41;5046638;27;66600;-39
2023/03/10 05:54:05;;;;;;;;;;;;;;;30.75;52.43;100961.88;5059189;27;70169;-41
2023/03/10 05:56:35;;;;;;;;;;;;;;;30.78;52.19;100963.31;5079484;27;66105;-42
2023/03/10 05:59:06;;;;;;;;;;;;;;;30.80;52.36;100959.38;5043410;27;71226;-41
2023/03/10 06:01:37;;;;;;;;;;;;;;;30.83;52.10;100955.41;5049300;28;65755;-42
2023/03/10 06:04:07;;;;;;;;;;;;;;;30.60;52.50;100920.75;5044677;28;70618;-38
2023/03/10 06:06:38;;;;;;;;;;;;;;;30.87;52.08;100951.22;5029305;28;65428;-39
2023/03/10 06:09:08;;;;;;;;;;;;;;;30.87;51.92;100941.22;5052301;27;70582;-40
2023/03/10 06:11:39;;;;;;;;;;;;;;;30.91;51.98;100941.63;5047555;28;66741;-39
2023/03/10 06:14:09;;;;;;;;;;;;;;;30.91;52.23;100928.91;5046159;28;70399;-40
2023/03/10 06:16:39;;;;;;;;;;;;;;;30.95;52.32;100921.16;5046850;27;66957;-39
2023/03/10 06:19:10;;;;;;;;;;;;;;;30.98;52.12;100909.03;5043827;28;70269;-39
2023/03/10 06:21:40;;;;;;;;;;;;;;;30.99;52.34;100903.41;5046622;28;66799;-40
2023/03/10 06:24:10;;;;;;;;;;;;;;;31.01;52.08;100890.50;5049268;28;68779;-41
2023/03/10 06:26:41;;;;;;;;;;;;;;;31.03;52.09;100885.66;5045894;28;65937;-40
2023/03/10 06:29:11;;;;;;;;;;;;;;;31.05;51.84;100883.56;5049395;28;70169;-38
2023/03/10 06:31:42;;;;;;;;;;;;;;;31.08;51.76;100877.72;5047711;28;66191;-39
2023/03/10 06:34:12;;;;;;;;;;;;;;;31.10;51.74;100872.91;5043708;28;69088;-43
2023/03/10 06:36:43;;;;;;;;;;;;;;;31.13;51.93;100869.75;5043332;28;65408;-39
2023/03/10 06:39:13;;;;;;;;;;;;;;;31.19;51.70;100861.78;5050362;28;69890;-39
2023/03/10 06:41:44;;;;;;;;;;;;;;;31.21;51.28;100855.09;5045794;28;67142;-42
2023/03/10 06:44:17;;;;;;;;;;;;;;;31.23;51.69;100853.00;5053480;28;69356;-38
2023/03/10 06:46:48;;;;;;;;;;;;;;;31.27;51.36;100850.66;5071618;27;65602;-39
2023/03/10 06:49:18;;;;;;;;;;;;;;;31.28;51.43;100839.56;5038300;28;70412;-38
2023/03/10 06:51:49;;;;;;;;;;;;;;;31.32;51.40;100835.38;5038145;28;67785;-40
2023/03/10 06:54:21;;;;;;;;;;;;;;;31.34;51.09;100835.13;5055435;28;70543;-39
2023/03/10 06:56:52;;;;;;;;;;;;;;;31.37;51.20;100821.16;5050589;28;66939;-39
2023/03/10 06:59:23;;;;;;;;;;;;;;;31.41;51.14;100826.97;5043621;28;70118;-38
2023/03/10 07:01:53;;;;;;;;;;;;;;;31.44;51.16;100827.34;5051749;27;65718;-38
2023/03/10 07:04:23;;;;;;;;;;;;;;;31.47;50.84;100816.06;5047649;28;70957;-41
2023/03/10 07:06:56;;;;;;;;;;;;;;;31.50;51.10;100817.50;5052247;28;64255;-37
2023/03/10 07:09:26;;;;;;;;;;;;;;;31.53;50.91;100812.44;5045457;28;70403;-38
2023/03/10 07:11:56;;;;;;;;;;;;;;;31.55;50.72;100813.03;5050457;28;66836;-38
2023/03/10 07:14:26;;;;;;;;;;;;;;;31.57;51.00;100810.94;5048146;28;70405;-40
2023/03/10 07:16:57;;;;;;;;;;;;;;;31.61;50.49;100795.03;5057298;28;66553;-39
2023/03/10 07:19:28;;;;;;;;;;;;;;;31.65;50.73;100800.81;5042487;28;70091;-42
2023/03/10 07:21:58;;;;;;;;;;;;;;;31.69;50.64;100791.19;5047722;28;66839;-39
2023/03/10 07:24:29;;;;;;;;;;;;;;;31.73;50.52;100786.97;5039043;28;68773;-40
2023/03/10 07:26:59;;;;;;;;;;;;;;;31.75;50.55;100785.69;5046615;28;66473;-41
2023/03/10 07:29:30;;;;;;;;;;;;;;;31.80;50.42;100776.88;5043350;28;69725;-39
2023/03/10 07:32:00;;;;;;;;;;;;;;;31.82;50.41;100781.00;5048632;27;66883;-39
2023/03/10 07:34:30;;;;;;;;;;;;;;;31.87;50.36;100783.00;5045445;28;70009;-38
2023/03/10 07:37:01;;;;;;;;;;;;;;;31.91;50.06;100783.41;5049849;28;65614;-42
2023/03/10 07:39:32;;;;;;;;;;;;;;;31.96;49.91;100786.28;5073694;27;69909;-39
2023/03/10 07:42:02;;;;;;;;;;;;;;;31.99;50.04;100785.81;5046113;28;65626;-42
2023/03/10 07:44:33;;;;;;;;;;;;;;;32.03;49.93;100782.41;5060469;27;70152;-39
2023/03/10 07:47:04;;;;;;;;;;;;;;;32.07;49.86;100771.09;5042132;28;66299;-38
2023/03/10 07:49:35;;;;;;;;;;;;;;;32.10;49.91;100770.66;5046971;28;70007;-38
2023/03/10 07:52:06;;;;;;;;;;;;;;;32.13;50.12;100768.28;5048839;28;66389;-39
2023/03/10 07:54:36;;;;;;;;;;;;;;;32.18;49.90;100765.72;5041683;28;69790;-39
2023/03/10 07:57:06;;;;;;;;;;;;;;;32.20;49.81;100766.28;5081145;27;66604;-39
2023/03/10 07:59:37;;;;;;;;;;;;;;;32.25;49.86;100762.88;5052666;28;69110;-39
2023/03/10 08:02:11;;;;;;;;;;;;;;;32.28;49.69;100759.69;5053188;28;66322;-38
2023/03/10 08:04:41;;;;;;;;;;;;;;;32.31;49.78;100759.22;5053452;28;70885;-39
2023/03/10 08:07:12;;;;;;;;;;;;;;;32.35;49.57;100765.03;5050247;28;66903;-39
2023/03/10 08:09:47;;;;;;;;;;;;;;;32.38;49.60;100761.88;5047728;28;70506;-38
2023/03/10 08:12:20;;;;;;;;;;;;;;;32.43;49.34;100770.09;5045867;28;65377;-38
2023/03/10 08:14:51;;;;;;;;;;;;;;;32.46;49.47;100758.84;5052226;28;70181;-39
2023/03/10 08:17:23;;;;;;;;;;;;;;;32.48;49.53;100759.41;5050374;28;66875;-39
2023/03/10 08:19:54;;;;;;;;;;;;;;;32.52;49.35;100768.75;5044708;28;69583;-39
2023/03/10 08:22:24;;;;;;;;;;;;;;;32.57;49.35;100765.31;5049735;28;65471;-39
2023/03/10 08:24:55;;;;;;;;;;;;;;;32.60;49.22;100770.31;5052703;28;70318;-39
2023/03/10 08:27:25;;;;;;;;;;;;;;;32.63;49.23;100765.22;5047644;28;65605;-39
2023/03/10 08:29:56;;;;;;;;;;;;;;;32.65;49.18;100760.38;5046917;28;69813;-39
2023/03/10 08:32:27;;;;;;;;;;;;;;;32.70;49.16;100771.34;5045804;28;65914;-40
2023/03/10 08:34:59;;;;;;;;;;;;;;;32.73;49.13;100770.06;5044729;28;69346;-38
2023/03/10 08:37:30;;;;;;;;;;;;;;;32.77;48.75;100775.88;5049629;28;66738;-38
2023/03/10 08:40:00;;;;;;;;;;;;;;;32.80;48.96;100765.34;5050702;28;69899;-40
2023/03/10 08:42:30;;;;;;;;;;;;;;;32.80;48.75;100770.78;5053879;28;65444;-39
2023/03/10 08:45:01;;;;;;;;;;;;;;;32.89;48.88;100769.34;5058422;28;71304;-39
2023/03/10 08:47:31;;;;;;;;;;;;;;;32.93;48.57;100775.13;5079852;27;64522;-39
2023/03/10 08:50:02;;;;;;;;;;;;;;;32.94;48.57;100776.81;5057948;28;69689;-39
2023/03/10 08:52:33;;;;;;;;;;;;;;;32.98;48.47;100771.72;5051295;27;66345;-38
2023/03/10 08:55:04;;;;;;;;;;;;;;;33.02;48.45;100772.94;5047631;28;69791;-39
2023/03/10 08:57:34;;;;;;;;;;;;;;;33.05;48.21;100777.91;5042854;27;67568;-40
2023/03/10 09:00:05;;;;;;;;;;;;;;;33.08;48.10;100777.41;5046701;28;70219;-39
2023/03/10 09:02:35;;;;;;;;;;;;;;;33.11;48.13;100775.03;5048744;28;65072;-39
2023/03/10 09:05:06;;;;;;;;;;;;;;;33.13;48.25;100785.69;5049262;28;70035;-38
2023/03/10 09:07:36;;;;;;;;;;;;;;;33.17;48.09;100791.47;5040969;28;66399;-39
2023/03/10 09:10:07;;;;;;;;;;;;;;;33.20;47.83;100791.81;5037027;28;70592;-40
2023/03/10 09:12:37;;;;;;;;;;;;;;;33.23;47.66;100790.50;5051211;28;66583;-39
2023/03/10 09:15:07;;;;;;;;;;;;;;;33.28;47.83;100801.50;5050693;28;69353;-41
2023/03/10 09:17:38;;;;;;;;;;;;;;;33.28;47.63;100799.59;5043119;27;66007;-40
2023/03/10 09:20:09;;;;;;;;;;;;;;;33.17;48.16;100797.72;5042932;28;70040;-39
2023/03/10 09:22:39;;;;;;;;;;;;;;;32.88;48.77;100805.75;5048728;28;66071;-40
2023/03/10 09:25:10;;;;;;;;;;;;;;;32.74;49.56;100808.94;5047100;28;69060;-39
2023/03/10 09:27:40;;;;;;;;;;;;;;;32.60;49.84;100813.75;5050565;28;65391;-39
2023/03/10 09:30:14;;;;;;;;;;;;;;;32.53;50.18;100813.03;5044729;28;70271;-41
2023/03/10 09:32:44;;;;;;;;;;;;;;;32.46;50.53;100811.25;5044743;27;66584;-38
2023/03/10 09:35:15;;;;;;;;;;;;;;;32.42;50.85;100812.72;5046953;28;70664;-39
2023/03/10 09:37:46;;;;;;;;;;;;;;;32.37;50.74;100815.31;5046454;28;65261;-39
2023/03/10 09:40:20;;;;;;;;;;;;;;;32.35;50.86;100822.06;5045402;28;69835;-38
2023/03/10 09:43:07;;;;;;;;;;;;;;;32.33;51.02;100824.97;5043291;27;66002;-40
2023/03/10 09:45:53;;;;;;;;;;;;;;;32.27;51.43;100821.31;5044616;28;69025;-40
2023/03/10 09:48:26;;;;;;;;;;;;;;;32.28;51.02;100822.13;5045411;28;65953;-41
2023/03/10 09:50:58;;;;;;;;;;;;;;;32.27;51.21;100831.34;5043081;28;69212;-40
2023/03/10 09:53:40;;;;;;;;;;;;;;;32.26;51.24;100835.94;5043049;28;66502;-38
2023/03/10 09:56:14;;;;;;;;;;;;;;;32.23;51.49;100836.41;5050829;28;69828;-39
2023/03/10 09:58:47;;;;;;;;;;;;;;;32.29;51.39;100842.81;5045367;28;65422;-43
2023/03/10 10:01:20;;;;;;;;;;;;;;;32.35;51.31;100839.16;5039886;28;70322;-41
2023/03/10 10:03:55;;;;;;;;;;;;;;;32.30;51.63;100847.16;5040990;28;65780;-41
2023/03/10 10:06:29;;;;;;;;;;;;;;;32.28;52.14;100843.84;5040309;28;68691;-38
2023/03/10 10:09:01;;;;;;;;;;;;;;;32.26;52.55;100851.38;5047536;28;65882;-38
2023/03/10 10:11:36;;;;;;;;;;;;;;;32.24;52.63;100858.94;5041237;28;70328;-39
2023/03/10 10:14:15;;;;;;;;;;;;;;;32.22;53.01;100866.50;5044910;28;66910;-42
2023/03/10 10:16:59;;;;;;;;;;;;;;;32.25;52.54;100866.84;5074577;27;69131;-40
2023/03/10 10:19:31;;;;;;;;;;;;;;;32.24;53.05;100875.25;5043155;28;66049;-40
2023/03/10 10:22:07;;;;;;;;;;;;;;;32.23;53.33;100876.28;5042950;28;69920;-40
2023/03/10 10:24:39;;;;;;;;;;;;;;;32.23;52.68;100879.00;5043391;28;66938;-38
2023/03/10 10:27:09;;;;;;;;;;;;;;;32.18;52.46;100881.56;5044522;28;69965;-42
2023/03/10 10:29:42;;;;;;;;;;;;;;;32.15;52.01;100891.00;5041392;28;66420;-39
2023/03/10 10:32:14;;;;;;;;;;;;;;;32.07;51.38;100890.47;5042585;28;69091;-41
2023/03/10 10:34:45;;;;;;;;;;;;;;;32.00;51.46;100896.81;5043197;28;67243;-40
2023/03/10 10:37:37;;;;;;;;;;;;;;;32.03;52.70;100896.34;5039061;27;69076;-39
2023/03/10 10:40:22;;;;;;;;;;;;;;;32.03;53.36;100904.50;5045676;27;65751;-45
2023/03/10 10:42:54;;;;;;;;;;;;;;;32.02;54.16;100900.13;5028135;28;69915;-42
2023/03/10 10:45:34;;;;;;;;;;;;;;;32.03;54.66;100907.22;5044666;27;66704;-40
2023/03/10 10:48:04;;;;;;;;;;;;;;;32.03;54.32;100907.22;5042378;28;70171;-43
2023/03/10 10:50:36;;;;;;;;;;;;;;;32.02;53.59;100908.28;5043109;28;66529;-42
2023/03/10 10:53:12;;;;;;;;;;;;;;;31.61;53.55;100841.97;5044210;28;70301;-41
2023/03/10 10:55:44;;;;;;;;;;;;;;;32.04;53.12;100913.50;5042498;28;67219;-43
2023/03/10 10:58:24;;;;;;;;;;;;;;;32.20;52.78;100906.59;5043048;28;69048;-39
2023/03/10 11:00:57;;;;;;;;;;;;;;;32.32;51.87;100915.63;5050459;28;66548;-39
2023/03/10 11:03:27;;;;;;;;;;;;;;;32.38;49.87;100914.72;5046063;27;70296;-39
2023/03/10 11:06:01;;;;;;;;;;;;;;;32.43;49.33;100922.16;5038952;28;66835;-41
2023/03/10 11:08:34;;;;;;;;;;;;;;;32.45;49.50;100918.16;5042635;27;68616;-42
2023/03/10 11:11:07;;;;;;;;;;;;;;;32.47;49.44;100924.22;5038944;28;66479;-42
2023/03/10 11:13:58;;;;;;;;;;;;;;;32.50;49.28;100922.94;5039488;28;69077;-41
2023/03/10 11:16:37;;;;;;;;;;;;;;;32.52;49.08;100925.44;5004900;28;65572;-42
2023/03/10 11:19:34;;;;;;;;;;;;;;;32.52;49.10;100925.44;5025342;28;69787;-41
2023/03/10 11:22:20;;;;;;;;;;;;;;;32.51;49.07;100929.19;5036155;27;65654;-40
2023/03/10 11:24:56;;;;;;;;;;;;;;;32.51;49.02;100929.19;5052242;28;70584;-39
2023/03/10 11:27:46;;;;;;;;;;;;;;;32.47;49.22;100940.50;5050643;28;66169;-41
2023/03/10 11:30:28;;;;;;;;;;;;;;;32.47;49.31;100940.50;5051475;27;69966;-39
2023/03/10 11:33:08;;;;;;;;;;;;;;;32.44;49.48;100940.94;5044548;28;66621;-43
2023/03/10 11:35:44;;;;;;;;;;;;;;;32.41;49.45;100946.81;5048066;27;70807;-39
2023/03/10 11:38:37;;;;;;;;;;;;;;;32.42;49.43;100948.47;5043020;28;65746;-41
2023/03/10 11:41:12;;;;;;;;;;;;;;;32.38;49.48;100952.72;5054428;28;69811;-39
2023/03/10 11:43:52;;;;;;;;;;;;;;;32.35;49.63;100947.75;5046754;28;67208;-41
2023/03/10 11:46:23;;;;;;;;;;;;;;;32.35;49.62;100955.91;5053968;28;69472;-40
2023/03/10 11:49:06;;;;;;;;;;;;;;;32.34;49.69;100950.69;5045971;28;66247;-40
2023/03/10 11:51:39;;;;;;;;;;;;;;;32.27;49.54;100953.50;5072777;27;70328;-39
2023/03/10 11:54:12;;;;;;;;;;;;;;;32.29;49.72;100959.53;5048938;28;65985;-39
2023/03/10 11:56:42;;;;;;;;;;;;;;;32.27;49.89;100957.03;5056733;27;70790;-41
2023/03/10 11:59:24;;;;;;;;;;;;;;;32.23;49.95;100961.28;5048451;27;66603;-40
2023/03/10 12:01:58;;;;;;;;;;;;;;;32.21;49.88;100962.56;5054363;28;70009;-40
2023/03/10 12:04:31;;;;;;;;;;;;;;;32.18;49.90;100963.84;5052514;27;65679;-39
2023/03/10 12:07:20;;;;;;;;;;;;;;;32.16;50.03;100975.97;5080160;27;70019;-40
2023/03/10 12:09:50;;;;;;;;;;;;;;;32.15;49.99;100974.28;5048928;28;66807;-40
2023/03/10 12:12:31;;;;;;;;;;;;;;;32.11;49.86;100973.91;5055731;28;69291;-41
2023/03/10 12:15:05;;;;;;;;;;;;;;;32.11;49.95;100978.53;5051190;28;66629;-40
2023/03/10 12:17:36;;;;;;;;;;;;;;;32.09;50.20;100988.78;5051806;27;70296;-42
2023/03/10 12:20:12;;;;;;;;;;;;;;;32.05;49.97;100991.94;5052851;28;66795;-42
2023/03/10 12:22:49;;;;;;;;;;;;;;;32.04;50.15;100990.28;5035779;28;69676;-42
2023/03/10 12:25:28;;;;;;;;;;;;;;;32.00;49.99;100994.50;5046050;28;66577;-41
2023/03/10 12:28:17;;;;;;;;;;;;;;;31.96;50.14;100987.88;5048703;28;69944;-40
2023/03/10 12:30:55;;;;;;;;;;;;;;;31.94;50.25;100989.97;5046721;28;66268;-39
2023/03/10 12:36:01;;;;;;;;;;;;;;;31.89;50.12;100992.50;5038442;28;65712;-39
2023/03/10 12:38:32;;;;;;;;;;;;;;;31.87;50.24;101000.03;5049736;28;69529;-41
2023/03/10 12:41:02;;;;;;;;;;;;;;;31.85;50.37;100990.47;5052700;28;65911;-39
2023/03/10 12:43:48;;;;;;;;;;;;;;;31.82;50.70;100991.75;5052814;28;70773;-40
2023/03/10 12:46:21;;;;;;;;;;;;;;;31.80;50.24;100999.28;5055741;28;66863;-41
2023/03/10 12:49:11;;;;;;;;;;;;;;;31.77;50.42;100997.00;5038400;28;71717;-42
2023/03/10 12:51:52;;;;;;;;;;;;;;;31.75;50.71;100996.41;5049835;28;65547;-39
2023/03/10 12:54:34;;;;;;;;;;;;;;;31.72;50.57;101002.28;5045608;28;69418;-40
2023/03/10 12:57:16;;;;;;;;;;;;;;;31.71;50.62;101006.06;5087005;27;66287;-42
2023/03/10 12:59:49;;;;;;;;;;;;;;;31.68;50.55;101007.31;5065308;27;69808;-39
2023/03/10 13:02:31;;;;;;;;;;;;;;;31.65;50.69;101012.34;5051064;28;65380;-41
2023/03/10 13:05:06;;;;;;;;;;;;;;;31.64;50.57;101016.13;5045502;28;69747;-42
2023/03/10 13:07:37;;;;;;;;;;;;;;;31.61;50.93;101023.63;5050055;27;66779;-42